Time;durP1;ratioP1;P1;durP2;ratioP2;P2;SDS_P1;SDS_P2;PMS_P1;PMS_P2;Temp;Humidity;BMP_temperature;BMP_pressure;BME280_temperature;BME280_humidity;BME280_pressure;Samples;Min_cycle;Max_cycle;Signal;HPM_P1;HPM_P2
2022/04/11 00:02:16;;;;;;;;;10.75;8.25;;;;;10.87;50.24;101282.25;5072053;27;45367;-61
2022/04/11 00:04:43;;;;;;;;;8.75;8.00;;;;;10.87;49.90;101284.03;5073633;27;45366;-61
2022/04/11 00:07:08;;;;;;;;;10.00;7.00;;;;;10.86;50.20;101283.19;5070817;28;45291;-61
2022/04/11 00:09:34;;;;;;;;;4.75;4.50;;;;;10.83;50.26;101280.72;5075341;27;45253;-61
2022/04/11 00:11:59;;;;;;;;;10.00;9.00;;;;;10.83;50.25;101282.50;5072439;27;45219;-61
2022/04/11 00:14:25;;;;;;;;;5.00;4.25;;;;;10.81;50.00;101272.00;5071473;27;46329;-60
2022/04/11 00:16:51;;;;;;;;;6.00;6.00;;;;;10.81;50.03;101276.44;5069253;28;45990;-61
2022/04/11 00:19:16;;;;;;;;;5.50;5.00;;;;;10.77;50.03;101277.53;5069995;28;45342;-60
2022/04/11 00:21:42;;;;;;;;;8.25;5.00;;;;;10.77;50.13;101281.03;5072946;28;45437;-60
2022/04/11 00:24:08;;;;;;;;;8.00;8.00;;;;;10.76;50.35;101278.47;5071295;28;45551;-60
2022/04/11 00:26:34;;;;;;;;;7.25;4.50;;;;;10.74;50.63;101275.88;5072790;28;45434;-60
2022/04/11 00:28:59;;;;;;;;;4.50;4.50;;;;;10.74;50.63;101273.25;5072463;28;45403;-60
2022/04/11 00:31:25;;;;;;;;;7.75;6.00;;;;;10.72;50.30;101269.00;5073166;28;45432;-60
2022/04/11 00:33:51;;;;;;;;;5.00;4.75;;;;;10.70;50.44;101258.53;5073447;28;45170;-60
2022/04/11 00:36:16;;;;;;;;;8.50;5.00;;;;;10.69;50.51;101248.09;5070023;28;45248;-60
2022/04/11 00:38:42;;;;;;;;;7.25;6.50;;;;;10.67;50.68;101245.53;5070702;28;45228;-60
2022/04/11 00:41:07;;;;;;;;;4.50;3.50;;;;;10.66;50.77;101238.53;5075334;27;45212;-60
2022/04/11 00:43:38;;;;;;;;;3.00;3.00;;;;;10.65;50.60;101228.94;5072636;28;45265;-60
2022/04/11 00:46:05;;;;;;;;;8.50;5.25;;;;;10.65;50.31;101231.56;5067752;28;45469;-59
2022/04/11 00:48:31;;;;;;;;;8.25;4.75;;;;;10.63;50.58;101220.28;5070255;28;45433;-61
2022/04/11 00:51:02;;;;;;;;;5.00;4.00;;;;;10.60;50.36;101213.38;5068773;28;45465;-59
2022/04/11 00:53:30;;;;;;;;;3.50;3.50;;;;;10.59;50.07;101210.84;5068539;28;45387;-60
2022/04/11 00:55:58;;;;;;;;;4.75;3.25;;;;;10.58;50.35;101217.00;5067424;28;45264;-59
2022/04/11 00:58:24;;;;;;;;;9.25;5.00;;;;;10.58;50.18;101209.09;5071140;28;45543;-59
2022/04/11 01:00:50;;;;;;;;;5.75;5.00;;;;;10.57;50.32;101213.53;5070875;28;45354;-59
2022/04/11 01:03:15;;;;;;;;;6.00;4.00;;;;;10.56;50.20;101203.94;5071092;28;45497;-59
2022/04/11 01:05:42;;;;;;;;;4.00;3.75;;;;;10.57;50.65;101202.13;5073935;28;46265;-59
2022/04/11 01:08:09;;;;;;;;;4.50;4.00;;;;;10.55;50.78;101193.47;5071392;28;46461;-60
2022/04/11 01:10:35;;;;;;;;;3.00;3.00;;;;;10.52;50.42;101186.59;5076222;28;45451;-59
2022/04/11 01:13:01;;;;;;;;;4.00;4.00;;;;;10.52;50.19;101189.22;5073523;28;45492;-59
2022/04/11 01:15:27;;;;;;;;;5.25;3.00;;;;;10.50;50.76;101177.91;5069439;28;46379;-60
2022/04/11 01:17:53;;;;;;;;;6.75;2.00;;;;;10.48;50.79;101179.75;5070698;28;45847;-59
2022/04/11 01:20:22;;;;;;;;;4.75;4.50;;;;;10.47;50.72;101177.22;5073802;28;45334;-59
2022/04/11 01:22:48;;;;;;;;;4.00;4.00;;;;;10.45;50.38;101169.41;5086184;27;45354;-59
2022/04/11 01:25:14;;;;;;;;;4.00;4.00;;;;;10.44;50.77;101166.84;5069264;28;45339;-59
2022/04/11 01:27:41;;;;;;;;;4.00;4.00;;;;;10.41;50.77;101164.34;5070049;28;45557;-59
2022/04/11 01:30:10;;;;;;;;;3.75;3.75;;;;;10.39;50.78;101160.97;5072019;27;45393;-59
2022/04/11 01:32:36;;;;;;;;;3.50;3.25;;;;;10.37;50.91;101161.03;5071251;28;45469;-59
2022/04/11 01:35:02;;;;;;;;;5.25;3.50;;;;;10.33;50.42;101155.06;5072465;28;45268;-59
2022/04/11 01:37:28;;;;;;;;;4.00;3.50;;;;;10.30;50.22;101154.38;5070274;28;45369;-59
2022/04/11 01:39:54;;;;;;;;;4.75;3.25;;;;;10.27;50.69;101151.94;5071666;28;45626;-60
2022/04/11 01:42:19;;;;;;;;;6.75;4.25;;;;;10.25;50.60;101145.88;5070757;28;45420;-59
2022/04/11 01:44:45;;;;;;;;;4.75;4.00;;;;;10.22;50.58;101149.50;5073221;28;45993;-59
2022/04/11 01:47:11;;;;;;;;;6.50;4.25;;;;;10.23;51.13;101145.09;5070626;28;45428;-59
2022/04/11 01:49:36;;;;;;;;;3.75;3.00;;;;;10.19;51.00;101141.75;5071027;28;45382;-59
2022/04/11 01:52:02;;;;;;;;;4.50;4.25;;;;;10.14;50.84;101141.13;5069407;28;45490;-59
2022/04/11 01:54:28;;;;;;;;;3.00;3.00;;;;;10.15;50.86;101134.94;5067490;28;47140;-59
2022/04/11 01:56:53;;;;;;;;;3.00;2.50;;;;;10.10;50.95;101136.94;5069328;28;45406;-60
2022/04/11 01:59:19;;;;;;;;;4.00;4.00;;;;;10.07;50.85;101132.69;5067280;28;45165;-60
2022/04/11 02:01:44;;;;;;;;;2.75;2.75;;;;;10.05;50.87;101125.81;5070025;28;45217;-60
2022/04/11 02:04:10;;;;;;;;;4.00;4.00;;;;;10.04;50.95;101126.75;5071340;28;45208;-61
2022/04/11 02:06:36;;;;;;;;;3.00;3.00;;;;;10.02;51.26;101129.41;5069306;28;45529;-60
2022/04/11 02:09:02;;;;;;;;;4.00;3.00;;;;;9.98;51.06;101122.63;5071281;28;45344;-60
2022/04/11 02:11:28;;;;;;;;;3.50;3.00;;;;;9.97;50.80;101120.94;5070785;28;45596;-60
2022/04/11 02:13:53;;;;;;;;;3.00;3.00;;;;;9.94;51.40;101118.44;5071148;28;45388;-60
2022/04/11 02:16:19;;;;;;;;;5.50;4.00;;;;;9.93;51.01;101116.72;5073420;28;45269;-61
2022/04/11 02:18:44;;;;;;;;;4.00;3.75;;;;;9.92;50.90;101117.66;5074892;28;45441;-60
2022/04/11 02:21:10;;;;;;;;;4.00;4.00;;;;;9.92;50.81;101119.44;5073113;28;45410;-60
2022/04/11 02:23:35;;;;;;;;;3.25;2.00;;;;;9.91;51.35;101117.75;5071499;28;45923;-60
2022/04/11 02:26:02;;;;;;;;;5.25;3.50;;;;;9.91;50.89;101109.84;5075865;28;45235;-59
2022/04/11 02:28:28;;;;;;;;;3.00;3.00;;;;;9.90;51.22;101109.00;5073293;27;45226;-60
2022/04/11 02:30:53;;;;;;;;;2.75;2.25;;;;;9.87;51.24;101103.88;5073302;28;45243;-60
2022/04/11 02:33:19;;;;;;;;;3.50;3.00;;;;;9.85;51.02;101097.84;5070620;28;45296;-60
2022/04/11 02:35:44;;;;;;;;;3.00;3.00;;;;;9.83;51.23;101101.50;5074089;28;45306;-60
2022/04/11 02:38:10;;;;;;;;;6.00;3.00;;;;;9.81;51.28;101098.94;5074847;28;45206;-60
2022/04/11 02:40:35;;;;;;;;;2.00;2.00;;;;;9.79;51.14;101100.78;5073846;28;45474;-60
2022/04/11 02:43:01;;;;;;;;;4.00;3.00;;;;;9.78;51.15;101099.94;5070392;28;45948;-60
2022/04/11 02:45:26;;;;;;;;;5.75;3.00;;;;;9.79;50.94;101091.13;5072087;28;45295;-59
2022/04/11 02:47:52;;;;;;;;;3.75;3.75;;;;;9.78;51.12;101086.78;5070222;27;45442;-60
2022/04/11 02:50:17;;;;;;;;;3.50;2.25;;;;;9.77;50.83;101090.34;5073202;28;45440;-60
2022/04/11 02:52:43;;;;;;;;;6.00;5.25;;;;;9.75;51.01;101091.34;5080304;28;46116;-60
2022/04/11 02:55:09;;;;;;;;;3.50;2.50;;;;;9.72;51.18;101081.84;5073664;28;45268;-60
2022/04/11 02:57:38;;;;;;;;;4.00;4.00;;;;;9.69;51.31;101074.09;5074802;28;45254;-60
2022/04/11 03:00:10;;;;;;;;;3.00;2.75;;;;;9.70;51.15;101072.31;5071696;28;45427;-60
2022/04/11 03:02:36;;;;;;;;;5.00;2.75;;;;;9.67;51.44;101065.44;5072502;28;45346;-60
2022/04/11 03:05:02;;;;;;;;;3.00;3.00;;;;;9.65;51.69;101055.94;5073533;28;45354;-60
2022/04/11 03:07:27;;;;;;;;;4.75;4.00;;;;;9.64;51.80;101056.88;5075762;28;45232;-60
2022/04/11 03:09:54;;;;;;;;;6.50;4.00;;;;;9.62;51.22;101056.91;5072828;28;45574;-60
2022/04/11 03:12:20;;;;;;;;;3.75;3.75;;;;;9.59;51.14;101048.34;5075827;28;45181;-60
2022/04/11 03:14:49;;;;;;;;;8.50;4.25;;;;;9.58;51.46;101042.22;5075427;28;45379;-61
2022/04/11 03:17:15;;;;;;;;;3.00;3.00;;;;;9.55;51.19;101039.72;5073120;28;45277;-61
2022/04/11 03:19:41;;;;;;;;;4.00;4.00;;;;;9.55;51.41;101041.50;5072685;28;45658;-61
2022/04/11 03:22:06;;;;;;;;;3.25;3.25;;;;;9.54;51.48;101039.81;5072097;28;45417;-60
2022/04/11 03:24:32;;;;;;;;;6.25;5.50;;;;;9.54;50.95;101040.66;5071192;28;45375;-60
2022/04/11 03:26:57;;;;;;;;;3.00;3.00;;;;;9.49;51.24;101043.53;5068902;28;45409;-60
2022/04/11 03:29:23;;;;;;;;;6.50;4.50;;;;;9.48;51.07;101038.38;5071650;28;45368;-60
2022/04/11 03:31:48;;;;;;;;;5.75;3.00;;;;;9.46;51.15;101048.94;5073350;28;45411;-60
2022/04/11 03:34:14;;;;;;;;;6.00;5.00;;;;;9.45;51.39;101056.91;5072798;27;45420;-60
2022/04/11 03:36:39;;;;;;;;;6.00;5.00;;;;;9.42;50.97;101052.66;5075366;28;45387;-60
2022/04/11 03:39:05;;;;;;;;;5.50;4.00;;;;;9.40;51.05;101051.91;5072432;28;45347;-60
2022/04/11 03:41:30;;;;;;;;;7.00;6.75;;;;;9.38;51.26;101043.22;5071076;28;45815;-60
2022/04/11 03:43:56;;;;;;;;;2.25;2.25;;;;;9.38;50.94;101044.97;5071492;28;45341;-60
2022/04/11 03:46:21;;;;;;;;;4.00;4.00;;;;;9.37;50.94;101038.03;5068718;28;45416;-60
2022/04/11 03:48:47;;;;;;;;;7.00;5.50;;;;;9.37;51.43;101043.28;5071760;28;45490;-60
2022/04/11 03:51:12;;;;;;;;;5.00;5.00;;;;;9.36;51.41;101026.66;5070788;28;46150;-60
2022/04/11 03:53:38;;;;;;;;;5.50;4.00;;;;;9.34;51.35;101017.16;5071650;28;45329;-60
2022/04/11 03:56:03;;;;;;;;;4.00;4.00;;;;;9.32;51.46;101017.25;5074163;28;45505;-60
2022/04/11 03:58:29;;;;;;;;;3.25;3.25;;;;;9.33;51.43;101012.84;5072902;28;45310;-60
2022/04/11 04:00:54;;;;;;;;;6.25;4.50;;;;;9.33;51.13;101018.09;5071254;28;45915;-60
2022/04/11 04:03:20;;;;;;;;;4.00;4.00;;;;;9.32;51.03;101011.09;5071408;28;45342;-60
2022/04/11 04:05:47;;;;;;;;;4.25;4.25;;;;;9.30;50.97;101005.09;5074084;28;45386;-60
2022/04/11 04:08:17;;;;;;;;;2.75;2.75;;;;;9.28;51.15;101004.31;5072468;27;45270;-60
2022/04/11 04:10:43;;;;;;;;;3.00;3.00;;;;;9.26;51.22;100999.13;5076046;28;45549;-60
2022/04/11 04:13:08;;;;;;;;;6.25;4.25;;;;;9.26;51.09;100993.03;5071704;28;45360;-60
2022/04/11 04:15:34;;;;;;;;;3.00;3.00;;;;;9.26;51.36;100991.25;5071455;28;45290;-60
2022/04/11 04:17:59;;;;;;;;;3.75;3.00;;;;;9.25;51.34;100992.19;5077799;28;45247;-60
2022/04/11 04:20:26;;;;;;;;;4.75;4.00;;;;;9.23;51.08;100989.59;5074465;28;45413;-60
2022/04/11 04:22:52;;;;;;;;;3.75;3.75;;;;;9.22;51.28;100993.16;5072063;28;46461;-60
2022/04/11 04:25:18;;;;;;;;;2.00;2.00;;;;;9.22;51.23;100990.53;5072563;28;45402;-60
2022/04/11 04:27:43;;;;;;;;;5.00;3.00;;;;;9.22;50.96;100989.69;5070924;28;45412;-60
2022/04/11 04:30:09;;;;;;;;;5.00;4.00;;;;;9.19;51.31;100990.69;5068389;28;45481;-60
2022/04/11 04:32:35;;;;;;;;;4.00;4.00;;;;;9.18;51.35;100989.00;5070549;28;45465;-60
2022/04/11 04:35:01;;;;;;;;;6.25;4.50;;;;;9.17;51.21;100978.56;5068903;28;45551;-60
2022/04/11 04:37:26;;;;;;;;;4.50;4.50;;;;;9.16;51.03;100982.97;5070805;28;45423;-60
2022/04/11 04:39:52;;;;;;;;;9.75;4.00;;;;;9.13;51.17;100972.59;5072339;28;45443;-60
2022/04/11 04:42:21;;;;;;;;;3.75;3.75;;;;;9.11;51.34;100969.22;5070629;28;45470;-60
2022/04/11 04:44:47;;;;;;;;;3.75;3.25;;;;;9.08;51.57;100965.88;5067756;28;45162;-60
2022/04/11 04:47:13;;;;;;;;;8.00;4.00;;;;;9.09;51.35;100962.34;5070523;28;45265;-60
2022/04/11 04:49:38;;;;;;;;;3.75;3.75;;;;;9.09;51.57;100970.22;5069275;28;45885;-60
2022/04/11 04:52:04;;;;;;;;;6.00;6.00;;;;;9.07;51.60;100978.16;5070658;28;45165;-60
2022/04/11 04:54:30;;;;;;;;;8.75;4.00;;;;;9.09;51.43;100980.72;5072256;28;45260;-60
2022/04/11 04:56:55;;;;;;;;;8.00;7.00;;;;;9.09;51.87;100989.47;5071688;28;45415;-60
2022/04/11 04:59:21;;;;;;;;;3.75;3.75;;;;;9.09;51.74;100988.63;5071751;28;45335;-60
2022/04/11 05:01:46;;;;;;;;;5.75;4.00;;;;;9.07;51.45;100995.69;5070571;28;45307;-60
2022/04/11 05:04:12;;;;;;;;;6.25;6.25;;;;;9.08;51.15;101000.03;5070976;28;45596;-60
2022/04/11 05:06:37;;;;;;;;;5.50;5.50;;;;;9.06;51.53;101000.09;5071244;28;45239;-60
2022/04/11 05:09:03;;;;;;;;;7.25;5.75;;;;;9.06;51.33;101002.72;5070972;28;46179;-60
2022/04/11 05:11:28;;;;;;;;;6.00;3.00;;;;;9.06;51.48;101001.88;5071186;28;45445;-60
2022/04/11 05:13:54;;;;;;;;;5.50;4.00;;;;;9.06;51.52;101002.72;5071095;28;45454;-60
2022/04/11 05:16:19;;;;;;;;;6.25;4.00;;;;;9.06;51.73;101002.72;5070781;28;45300;-60
2022/04/11 05:18:45;;;;;;;;;7.50;3.50;;;;;9.06;51.59;100991.38;5067535;28;46081;-60
2022/04/11 05:21:11;;;;;;;;;7.25;7.00;;;;;9.06;51.41;100986.97;5070515;28;45216;-60
2022/04/11 05:23:36;;;;;;;;;8.00;6.00;;;;;9.05;51.77;100993.16;5072494;28;45611;-60
2022/04/11 05:26:05;;;;;;;;;8.25;6.25;;;;;9.06;51.19;100992.22;5066174;28;45220;-61
2022/04/11 05:28:31;;;;;;;;;6.50;5.75;;;;;9.08;51.36;100986.88;5060355;28;46338;-60
2022/04/11 05:30:57;;;;;;;;;8.00;5.00;;;;;9.07;51.35;100979.94;5064760;28;45431;-60
2022/04/11 05:33:22;;;;;;;;;6.25;5.00;;;;;9.09;51.69;100986.00;5069053;28;45621;-60
2022/04/11 05:35:48;;;;;;;;;7.00;2.75;;;;;9.10;51.46;100979.81;5070211;28;45519;-60
2022/04/11 05:38:16;;;;;;;;;9.75;8.25;;;;;9.09;51.53;100976.31;5071984;28;45532;-60
2022/04/11 05:40:43;;;;;;;;;10.50;9.75;;;;;9.10;51.42;100975.41;5071242;28;45454;-60
2022/04/11 05:43:09;;;;;;;;;11.00;8.75;;;;;9.12;51.58;100972.69;5066440;28;45237;-61
2022/04/11 05:45:35;;;;;;;;;7.25;7.25;;;;;9.12;51.71;100973.53;5068981;28;45553;-60
2022/04/11 05:48:01;;;;;;;;;11.50;10.50;;;;;9.14;51.58;100962.94;5077194;28;45282;-60
2022/04/11 05:50:27;;;;;;;;;14.00;13.50;;;;;9.16;51.81;100963.69;5084084;28;45300;-61
2022/04/11 05:52:52;;;;;;;;;12.00;8.75;;;;;9.20;51.52;100976.63;5083298;28;45376;-61
2022/04/11 05:55:18;;;;;;;;;13.50;10.75;;;;;9.28;51.81;100976.25;5084682;28;45330;-60
2022/04/11 05:57:44;;;;;;;;;12.50;8.75;;;;;9.39;51.57;100984.44;5084041;28;46077;-60
2022/04/11 06:00:11;;;;;;;;;10.00;7.00;;;;;9.50;51.25;100984.75;5075874;28;45385;-61
2022/04/11 06:02:36;;;;;;;;;6.50;6.50;;;;;9.68;51.41;100982.97;5063915;28;45346;-61
2022/04/11 06:05:02;;;;;;;;;12.00;6.50;;;;;9.83;50.98;100978.69;5072944;28;45235;-60
2022/04/11 06:07:32;;;;;;;;;8.50;8.00;;;;;9.98;51.00;100983.16;5068438;28;45333;-60
2022/04/11 06:09:58;;;;;;;;;9.00;8.00;;;;;10.13;50.50;100976.22;5073964;28;45480;-59
2022/04/11 06:12:24;;;;;;;;;7.00;5.25;;;;;10.23;50.32;100974.81;5079965;28;45353;-59
2022/04/11 06:14:50;;;;;;;;;6.50;6.50;;;;;10.32;49.91;100984.00;5063957;28;45548;-59
2022/04/11 06:17:16;;;;;;;;;8.25;7.25;;;;;10.37;49.99;100987.25;5074192;28;45504;-59
2022/04/11 06:19:41;;;;;;;;;8.75;8.75;;;;;10.43;50.14;100981.66;5071358;28;45421;-60
2022/04/11 06:22:10;;;;;;;;;5.50;4.75;;;;;10.46;49.33;100983.25;5065383;28;45466;-60
2022/04/11 06:24:35;;;;;;;;;6.50;6.25;;;;;10.49;49.16;100978.66;5063916;28;45325;-60
2022/04/11 06:27:01;;;;;;;;;7.00;5.75;;;;;10.55;49.59;100982.75;5063670;28;45411;-60
2022/04/11 06:29:26;;;;;;;;;9.50;6.25;;;;;10.58;49.82;100982.56;5063413;28;45310;-60
2022/04/11 06:31:52;;;;;;;;;9.00;6.75;;;;;10.60;48.88;100981.56;5063591;28;45255;-60
2022/04/11 06:34:17;;;;;;;;;4.00;4.00;;;;;10.60;49.34;100983.34;5063574;28;45332;-60
2022/04/11 06:36:43;;;;;;;;;7.25;7.00;;;;;10.62;49.29;100978.84;5063071;28;45471;-60
2022/04/11 06:39:08;;;;;;;;;7.25;6.00;;;;;10.65;49.02;100969.91;5067276;28;45487;-60
2022/04/11 06:41:34;;;;;;;;;7.00;5.25;;;;;10.68;49.27;100964.47;5066431;27;45735;-60
2022/04/11 06:43:59;;;;;;;;;8.50;5.50;;;;;10.65;49.12;100965.47;5063203;28;45398;-60
2022/04/11 06:46:25;;;;;;;;;10.00;7.75;;;;;10.66;48.67;100966.34;5062718;28;45426;-60
2022/04/11 06:48:50;;;;;;;;;13.50;11.75;;;;;10.69;48.69;100959.13;5062876;28;45257;-60
2022/04/11 06:51:15;;;;;;;;;12.00;8.25;;;;;10.80;48.82;100955.88;5062201;28;45448;-60
2022/04/11 06:53:41;;;;;;;;;8.50;8.00;;;;;10.94;48.99;100947.19;5066283;28;45660;-61
2022/04/11 06:56:06;;;;;;;;;8.00;8.00;;;;;11.07;48.71;100946.41;5062272;28;45420;-60
2022/04/11 06:58:32;;;;;;;;;9.25;6.00;;;;;11.15;48.11;100951.22;5068823;28;45477;-59
2022/04/11 07:00:57;;;;;;;;;8.00;5.25;;;;;11.26;48.42;100948.81;5067189;28;45212;-59
2022/04/11 07:03:23;;;;;;;;;6.50;6.50;;;;;11.38;48.23;100950.72;5062669;28;45572;-60
2022/04/11 07:05:48;;;;;;;;;7.75;6.00;;;;;11.45;48.04;100945.91;5062527;28;45343;-59
2022/04/11 07:08:14;;;;;;;;;7.75;7.00;;;;;11.48;47.66;100947.53;5062977;28;45257;-59
2022/04/11 07:10:40;;;;;;;;;8.00;6.50;;;;;11.46;47.90;100945.84;5079039;28;45228;-59
2022/04/11 07:13:06;;;;;;;;;8.25;7.50;;;;;11.45;47.31;100943.28;5072836;28;45470;-59
2022/04/11 07:15:32;;;;;;;;;9.25;7.75;;;;;11.42;47.61;100925.00;5062090;28;45635;-58
2022/04/11 07:17:58;;;;;;;;;8.50;7.75;;;;;11.47;47.58;100928.22;5062248;28;45461;-59
2022/04/11 07:20:23;;;;;;;;;8.75;8.00;;;;;11.50;47.65;100920.13;5062608;28;45370;-58
2022/04/11 07:22:49;;;;;;;;;8.75;8.00;;;;;11.50;47.25;100921.91;5062756;28;45769;-61
2022/04/11 07:25:14;;;;;;;;;7.75;5.00;;;;;11.49;47.63;100922.84;5062158;28;45918;-61
2022/04/11 07:27:40;;;;;;;;;5.00;5.00;;;;;11.52;47.27;100909.47;5062648;28;45378;-59
2022/04/11 07:30:05;;;;;;;;;9.00;7.25;;;;;11.55;47.54;100915.44;5077045;28;45514;-59
2022/04/11 07:32:31;;;;;;;;;7.25;7.25;;;;;11.60;47.50;100915.13;5070841;28;45201;-62
2022/04/11 07:34:58;;;;;;;;;7.50;5.00;;;;;11.61;47.48;100914.19;5064955;28;45967;-61
2022/04/11 07:37:25;;;;;;;;;3.50;3.00;;;;;11.61;47.42;100914.19;5060636;28;45703;-61
2022/04/11 07:39:52;;;;;;;;;5.00;5.00;;;;;11.63;47.51;100910.53;5067563;28;45394;-61
2022/04/11 07:42:17;;;;;;;;;7.00;4.00;;;;;11.65;47.28;100916.56;5062297;28;45282;-61
2022/04/11 07:44:43;;;;;;;;;7.50;7.50;;;;;11.67;47.24;100900.63;5061683;28;45390;-61
2022/04/11 07:47:09;;;;;;;;;6.00;5.75;;;;;11.68;47.52;100905.78;5061903;28;45340;-61
2022/04/11 07:49:34;;;;;;;;;7.00;6.25;;;;;11.71;47.08;100910.06;5061979;28;45521;-61
2022/04/11 07:52:00;;;;;;;;;8.25;7.75;;;;;11.76;47.73;100907.97;5062104;28;45380;-61
2022/04/11 07:54:25;;;;;;;;;7.75;5.50;;;;;11.82;47.08;100912.06;5061783;28;45630;-61
2022/04/11 07:56:51;;;;;;;;;10.25;9.75;;;;;11.88;47.35;100907.25;5062248;28;45255;-61
2022/04/11 07:59:16;;;;;;;;;7.25;5.00;;;;;11.91;47.20;100891.22;5074645;28;45187;-61
2022/04/11 08:01:42;;;;;;;;;6.50;5.75;;;;;11.97;46.92;100901.41;5072519;28;45252;-61
2022/04/11 08:04:07;;;;;;;;;8.00;6.25;;;;;11.99;46.82;100886.31;5082370;28;45571;-61
2022/04/11 08:06:33;;;;;;;;;8.75;7.50;;;;;12.00;46.97;100885.34;5082480;28;45334;-61
2022/04/11 08:08:58;;;;;;;;;10.00;7.75;;;;;12.04;47.03;100879.91;5082524;28;45432;-61
2022/04/11 08:11:25;;;;;;;;;6.25;6.25;;;;;12.10;47.08;100885.66;5080586;28;45510;-61
2022/04/11 08:13:51;;;;;;;;;9.75;5.25;;;;;12.12;46.64;100880.25;5065670;28;46173;-61
2022/04/11 08:16:17;;;;;;;;;10.00;8.00;;;;;12.13;47.03;100880.16;5061718;28;45350;-61
2022/04/11 08:18:43;;;;;;;;;10.25;8.25;;;;;12.19;47.07;100871.00;5061946;28;45330;-61
2022/04/11 08:21:08;;;;;;;;;4.75;2.50;;;;;12.26;47.01;100869.69;5061983;28;45506;-61
2022/04/11 08:23:34;;;;;;;;;8.25;7.00;;;;;12.33;47.10;100873.63;5061649;28;46451;-60
2022/04/11 08:25:59;;;;;;;;;8.75;7.25;;;;;12.39;46.59;100880.28;5061901;28;45297;-60
2022/04/11 08:28:25;;;;;;;;;6.25;4.25;;;;;12.44;46.54;100881.69;5061687;28;45300;-61
2022/04/11 08:30:50;;;;;;;;;6.25;5.00;;;;;12.54;46.48;100881.94;5061686;28;45297;-60
2022/04/11 08:33:16;;;;;;;;;8.00;6.00;;;;;12.61;46.71;100875.31;5061588;28;45982;-61
2022/04/11 08:35:42;;;;;;;;;8.75;6.50;;;;;12.72;46.43;100871.97;5061651;28;45231;-60
2022/04/11 08:38:08;;;;;;;;;9.00;9.00;;;;;12.82;46.35;100873.06;5061739;28;45318;-60
2022/04/11 08:40:33;;;;;;;;;12.25;9.00;;;;;12.91;46.48;100875.06;5068845;28;45206;-60
2022/04/11 08:42:59;;;;;;;;;5.75;5.00;;;;;12.98;46.05;100846.44;5061193;28;46399;-61
2022/04/11 08:45:27;;;;;;;;;9.25;5.75;;;;;13.05;45.87;100853.00;5059965;28;45277;-60
2022/04/11 08:47:56;;;;;;;;;10.25;9.00;;;;;13.19;45.85;100852.88;5061474;28;45374;-60
2022/04/11 08:50:24;;;;;;;;;7.50;5.75;;;;;13.33;45.79;100862.56;5061335;28;45534;-60
2022/04/11 08:52:54;;;;;;;;;6.00;5.25;;;;;13.44;45.94;100851.25;5061265;28;45366;-60
2022/04/11 08:55:21;;;;;;;;;10.00;7.00;;;;;13.52;45.70;100833.88;5061126;28;45459;-60
2022/04/11 08:57:47;;;;;;;;;10.25;6.75;;;;;13.60;45.48;100834.19;5061070;28;45224;-61
2022/04/11 09:00:16;;;;;;;;;9.50;4.50;;;;;13.73;45.54;100828.03;5061197;28;45614;-60
2022/04/11 09:02:43;;;;;;;;;6.00;6.00;;;;;13.87;45.30;100823.44;5078727;28;45457;-61
2022/04/11 09:05:10;;;;;;;;;10.00;6.25;;;;;13.95;45.25;100813.13;5081711;28;45306;-61
2022/04/11 09:07:53;;;;;;;;;7.75;5.25;;;;;14.07;45.27;100821.19;5080249;28;45404;-61
2022/04/11 09:10:27;;;;;;;;;7.00;5.00;;;;;14.20;45.10;100814.84;5081492;28;45393;-61
2022/04/11 09:12:54;;;;;;;;;5.00;5.00;;;;;14.31;44.96;100823.84;5073086;28;45338;-60
2022/04/11 09:15:23;;;;;;;;;4.50;4.00;;;;;14.39;44.85;100814.38;5060920;28;45295;-61
2022/04/11 09:17:49;;;;;;;;;7.00;5.75;;;;;14.48;45.08;100819.00;5061239;28;45418;-60
2022/04/11 09:20:21;;;;;;;;;6.00;4.25;;;;;14.59;44.68;100815.53;5061058;28;45419;-61
2022/04/11 09:22:48;;;;;;;;;4.25;3.00;;;;;14.68;44.01;100821.97;5060338;28;46211;-61
2022/04/11 09:25:16;;;;;;;;;3.00;3.00;;;;;14.74;44.19;100822.34;5060353;28;45169;-61
2022/04/11 09:27:42;;;;;;;;;5.00;3.75;;;;;14.84;44.17;100816.34;5061174;28;45499;-61
2022/04/11 09:30:22;;;;;;;;;10.00;6.00;;;;;14.92;44.09;100816.59;5060912;28;45562;-60
2022/04/11 09:33:01;;;;;;;;;8.00;5.00;;;;;15.05;44.45;100815.56;5060887;28;46479;-60
2022/04/11 09:35:29;;;;;;;;;5.25;4.00;;;;;15.17;43.68;100800.53;5060431;28;45402;-61
2022/04/11 09:38:15;;;;;;;;;4.50;4.50;;;;;15.28;43.57;100797.88;5060984;28;45469;-61
2022/04/11 09:40:43;;;;;;;;;5.00;4.00;;;;;15.30;43.13;100789.78;5076571;28;45280;-60
2022/04/11 09:43:10;;;;;;;;;4.00;4.00;;;;;15.38;43.06;100783.88;5080526;28;45432;-60
2022/04/11 09:45:49;;;;;;;;;5.25;3.50;;;;;15.43;43.15;100782.56;5081209;28;45174;-61
2022/04/11 09:48:27;;;;;;;;;6.75;5.00;;;;;15.54;42.90;100782.53;5081024;28;45618;-61
2022/04/11 09:50:54;;;;;;;;;3.75;3.75;;;;;15.66;42.97;100777.25;5081033;28;45224;-60
2022/04/11 09:53:29;;;;;;;;;6.00;4.00;;;;;15.75;42.45;100777.38;5080945;28;45240;-60
2022/04/11 09:55:55;;;;;;;;;3.25;3.25;;;;;15.80;42.72;100769.88;5080826;28;45344;-61
2022/04/11 09:58:22;;;;;;;;;5.75;5.00;;;;;15.89;42.72;100768.28;5080735;28;45294;-61
2022/04/11 10:00:49;;;;;;;;;4.00;4.00;;;;;16.02;42.77;100768.13;5066575;28;45408;-61
2022/04/11 10:03:16;;;;;;;;;4.50;3.00;;;;;16.12;42.36;100761.09;5060562;28;46196;-61
2022/04/11 10:05:42;;;;;;;;;2.75;2.75;;;;;16.15;41.79;100771.47;5060292;28;45330;-61
2022/04/11 10:08:09;;;;;;;;;3.75;3.75;;;;;16.18;42.13;100772.06;5060794;28;45338;-60
2022/04/11 10:10:38;;;;;;;;;3.00;3.00;;;;;16.28;41.71;100769.50;5076370;28;45332;-61
2022/04/11 10:13:05;;;;;;;;;6.00;3.50;;;;;16.36;41.57;100767.06;5070946;28;46656;-61
2022/04/11 10:15:31;;;;;;;;;4.00;3.25;;;;;16.46;40.86;100767.13;5060122;28;45307;-61
2022/04/11 10:17:57;;;;;;;;;2.25;2.25;;;;;16.55;40.61;100760.19;5060574;28;45407;-61
2022/04/11 10:20:24;;;;;;;;;6.75;3.00;;;;;16.63;40.51;100747.94;5060446;28;45237;-61
2022/04/11 10:23:02;;;;;;;;;5.00;4.00;;;;;16.70;40.81;100761.59;5059051;28;46879;-60
2022/04/11 10:25:28;;;;;;;;;4.25;2.75;;;;;16.74;40.25;100757.69;5060461;28;45324;-60
2022/04/11 10:28:13;;;;;;;;;2.25;2.25;;;;;16.85;40.43;100759.44;5060146;28;45286;-61
2022/04/11 10:30:39;;;;;;;;;3.00;2.75;;;;;16.97;40.25;100758.38;5067639;28;45277;-62
2022/04/11 10:33:05;;;;;;;;;4.75;2.00;;;;;17.06;39.38;100754.09;5078780;28;45587;-61
2022/04/11 10:35:33;;;;;;;;;5.25;4.00;;;;;17.18;39.75;100748.56;5081979;28;45482;-61
2022/04/11 10:37:59;;;;;;;;;4.25;4.00;;;;;17.21;39.40;100734.97;5083424;28;45233;-62
2022/04/11 10:40:24;;;;;;;;;5.25;3.00;;;;;17.21;39.18;100734.97;5076190;28;45621;-62
2022/04/11 10:43:04;;;;;;;;;3.00;1.00;;;;;17.13;38.83;100721.47;5063166;28;45838;-61
2022/04/11 10:45:39;;;;;;;;;2.00;2.00;;;;;17.13;39.21;100724.16;5063266;28;45357;-61
2022/04/11 10:48:06;;;;;;;;;4.00;2.50;;;;;17.18;39.34;100718.44;5063181;28;45317;-62
2022/04/11 10:50:37;;;;;;;;;2.50;2.50;;;;;17.25;39.07;100724.91;5063428;28;45297;-62
2022/04/11 10:53:13;;;;;;;;;2.75;2.00;;;;;17.35;38.56;100717.78;5063046;28;45332;-62
2022/04/11 10:56:02;;;;;;;;;2.00;2.00;;;;;17.40;38.76;100712.06;5063357;28;45381;-62
2022/04/11 10:58:41;;;;;;;;;2.00;2.00;;;;;17.45;38.29;100708.00;5072560;28;45228;-62
2022/04/11 11:01:08;;;;;;;;;2.25;2.00;;;;;17.46;38.61;100708.88;5066587;28;45577;-62
2022/04/11 11:03:33;;;;;;;;;3.75;3.00;;;;;17.53;38.37;100710.84;5063053;28;46140;-62
2022/04/11 11:06:19;;;;;;;;;3.75;3.00;;;;;17.55;38.38;100706.22;5062921;28;45322;-62
2022/04/11 11:08:45;;;;;;;;;6.00;3.50;;;;;17.61;38.21;100701.31;5063317;28;45272;-62
2022/04/11 11:11:25;;;;;;;;;3.25;2.50;;;;;17.67;38.24;100690.97;5082855;28;45276;-61
2022/04/11 11:13:53;;;;;;;;;3.25;2.50;;;;;17.68;38.11;100691.81;5066924;28;46406;-62
2022/04/11 11:16:18;;;;;;;;;3.25;3.00;;;;;17.66;37.93;100685.78;5062767;28;45364;-62
2022/04/11 11:18:50;;;;;;;;;3.50;2.25;;;;;17.68;38.65;100686.47;5062341;28;45982;-62
2022/04/11 11:21:27;;;;;;;;;1.50;1.50;;;;;17.76;38.17;100691.97;5062874;28;45559;-62
2022/04/11 11:24:14;;;;;;;;;4.25;4.00;;;;;17.75;37.98;100701.81;5062756;28;45346;-62
2022/04/11 11:26:45;;;;;;;;;2.00;2.00;;;;;17.74;38.13;100692.13;5062831;28;45303;-62